Time;durP1;ratioP1;P1;durP2;ratioP2;P2;SDS_P1;SDS_P2;PMS_P1;PMS_P2;Temp;Humidity;BMP_temperature;BMP_pressure;BME280_temperature;BME280_humidity;BME280_pressure;Samples;Min_cycle;Max_cycle;Signal;HPM_P1;HPM_P2
2021/11/09 00:00:26;;;;;;;4.68;2.15;;;24.10;99.60;;;;;;5050531;28;20021;-67
2021/11/09 00:02:53;;;;;;;5.68;2.60;;;24.20;98.70;;;;;;5050018;28;20052;-68
2021/11/09 00:05:24;;;;;;;4.75;2.00;;;24.20;98.10;;;;;;5050899;28;20711;-68
2021/11/09 00:07:55;;;;;;;6.18;1.90;;;24.20;98.90;;;;;;5048272;28;20051;-67
2021/11/09 00:10:23;;;;;;;6.18;2.47;;;24.40;99.30;;;;;;5050831;28;20016;-68
2021/11/09 00:12:54;;;;;;;7.70;2.60;;;24.60;99.50;;;;;;5050177;28;20049;-67
2021/11/09 00:15:24;;;;;;;6.00;2.53;;;24.80;98.40;;;;;;5050309;28;20174;-68
2021/11/09 00:17:54;;;;;;;6.72;2.47;;;25.00;97.00;;;;;;5049316;28;20041;-67
2021/11/09 00:20:25;;;;;;;4.65;2.30;;;25.40;97.40;;;;;;5049559;28;20029;-71
2021/11/09 00:22:53;;;;;;;5.72;2.47;;;25.90;97.20;;;;;;5050957;28;20021;-67
2021/11/09 00:25:21;;;;;;;6.60;2.88;;;26.30;95.30;;;;;;5050155;28;20040;-69
2021/11/09 00:27:48;;;;;;;3.97;2.45;;;26.80;94.60;;;;;;5049338;28;20414;-68
2021/11/09 00:30:17;;;;;;;6.03;3.22;;;26.70;92.00;;;;;;5045812;28;20072;-68
2021/11/09 00:32:44;;;;;;;4.50;2.75;;;26.70;92.80;;;;;;5050669;28;20072;-68
2021/11/09 00:35:19;;;;;;;8.70;2.63;;;27.10;92.90;;;;;;5050733;28;20017;-67
2021/11/09 00:37:46;;;;;;;4.10;2.38;;;27.00;90.80;;;;;;5050256;28;20029;-67
2021/11/09 00:40:15;;;;;;;7.28;3.00;;;26.60;92.20;;;;;;5050276;28;20056;-66
2021/11/09 00:42:42;;;;;;;6.95;2.63;;;26.40;92.60;;;;;;5032802;28;20029;-68
2021/11/09 00:45:11;;;;;;;6.05;2.53;;;26.50;94.10;;;;;;5050441;28;20120;-67
2021/11/09 00:47:39;;;;;;;7.10;2.80;;;26.60;91.70;;;;;;5050209;28;20524;-67
2021/11/09 00:50:08;;;;;;;6.60;2.88;;;26.10;91.60;;;;;;5049376;28;20523;-69
2021/11/09 00:52:35;;;;;;;6.78;2.60;;;25.90;93.40;;;;;;5049218;28;20021;-67
2021/11/09 00:55:04;;;;;;;5.75;3.00;;;25.90;93.80;;;;;;5050590;28;20102;-68
2021/11/09 00:57:31;;;;;;;3.90;2.60;;;26.10;91.30;;;;;;5050169;28;20021;-68
2021/11/09 00:59:58;;;;;;;12.02;9.90;;;26.60;88.20;;;;;;5048716;28;20024;-68
2021/11/09 01:02:25;;;;;;;9.98;3.10;;;26.50;91.60;;;;;;5049501;28;20017;-68
2021/11/09 01:04:52;;;;;;;5.90;2.70;;;26.40;90.80;;;;;;5050247;28;20028;-66
2021/11/09 01:07:19;;;;;;;8.60;3.13;;;25.90;91.90;;;;;;5047360;28;20024;-67
2021/11/09 01:09:46;;;;;;;4.53;2.40;;;25.40;93.90;;;;;;5046678;28;20017;-68
2021/11/09 01:12:13;;;;;;;3.25;2.25;;;25.40;94.90;;;;;;5047412;28;20025;-66
2021/11/09 01:14:40;;;;;;;5.72;2.72;;;25.60;93.30;;;;;;5048077;28;20021;-69
2021/11/09 01:17:07;;;;;;;8.48;2.95;;;25.50;93.20;;;;;;5047262;28;20047;-69
2021/11/09 01:19:35;;;;;;;3.72;2.40;;;25.20;94.10;;;;;;5046288;28;20071;-67
2021/11/09 01:22:03;;;;;;;6.03;3.10;;;25.40;93.70;;;;;;5046774;28;20033;-67
2021/11/09 01:24:30;;;;;;;3.85;2.60;;;25.70;92.80;;;;;;5047834;28;20582;-67
2021/11/09 01:26:57;;;;;;;6.43;2.67;;;26.00;93.00;;;;;;5047217;28;20379;-70
2021/11/09 01:29:24;;;;;;;5.25;3.05;;;26.40;91.50;;;;;;5047541;28;20039;-68
2021/11/09 01:31:53;;;;;;;7.20;3.03;;;27.10;90.00;;;;;;5047603;28;20036;-68
2021/11/09 01:34:22;;;;;;;8.60;2.63;;;27.50;90.20;;;;;;5047438;28;20108;-68
2021/11/09 01:36:49;;;;;;;6.07;3.05;;;27.90;90.00;;;;;;5045804;28;20037;-70
2021/11/09 01:39:16;;;;;;;4.45;2.63;;;28.60;84.80;;;;;;5045221;28;20029;-67
2021/11/09 01:41:44;;;;;;;6.88;3.13;;;28.70;84.00;;;;;;5049222;28;20060;-68
2021/11/09 01:44:12;;;;;;;4.85;2.47;;;29.20;77.90;;;;;;5046132;28;20041;-68
2021/11/09 01:46:39;;;;;;;5.03;2.53;;;29.60;74.20;;;;;;5047332;28;20048;-65
2021/11/09 01:49:08;;;;;;;4.28;2.40;;;29.70;72.10;;;;;;5046774;28;20542;-68
2021/11/09 01:51:35;;;;;;;5.57;2.60;;;28.90;76.90;;;;;;5047087;28;20035;-68
2021/11/09 01:54:03;;;;;;;4.38;2.35;;;28.80;79.20;;;;;;5046224;28;20744;-72
2021/11/09 01:56:32;;;;;;;6.85;2.67;;;28.50;76.90;;;;;;5046480;28;20048;-68
2021/11/09 01:58:59;;;;;;;7.10;2.60;;;28.30;79.90;;;;;;5045493;28;20555;-69
2021/11/09 02:01:28;;;;;;;4.82;3.08;;;28.00;81.10;;;;;;5051866;28;20024;-68
2021/11/09 02:03:59;;;;;;;4.82;2.67;;;27.90;82.90;;;;;;5050365;28;20021;-69
2021/11/09 02:06:27;;;;;;;5.65;3.90;;;27.90;84.80;;;;;;5050756;28;20013;-67
2021/11/09 02:09:00;;;;;;;5.43;2.75;;;28.90;85.80;;;;;;5048969;28;20535;-70
2021/11/09 02:11:27;;;;;;;7.32;3.40;;;29.90;71.70;;;;;;5050493;28;20017;-67
2021/11/09 02:13:55;;;;;;;6.18;3.00;;;30.60;65.80;;;;;;5032940;28;20025;-67
2021/11/09 02:16:22;;;;;;;5.93;2.97;;;30.70;68.70;;;;;;5050991;28;20091;-68
2021/11/09 02:18:50;;;;;;;6.72;2.80;;;31.00;65.60;;;;;;5028097;28;20083;-67
2021/11/09 02:21:17;;;;;;;4.75;2.85;;;30.50;68.40;;;;;;5050914;28;20020;-69
2021/11/09 02:23:46;;;;;;;5.13;3.15;;;30.70;69.60;;;;;;5050507;28;20057;-67
2021/11/09 02:26:17;;;;;;;4.45;2.28;;;31.00;70.60;;;;;;5051501;28;20052;-69
2021/11/09 02:28:45;;;;;;;4.55;2.47;;;31.40;70.30;;;;;;5047740;28;20414;-68
2021/11/09 02:31:12;;;;;;;6.10;2.85;;;31.10;68.10;;;;;;5047182;28;20025;-68
2021/11/09 02:33:40;;;;;;;4.65;3.00;;;30.70;67.00;;;;;;5047251;28;20029;-70
2021/11/09 02:36:08;;;;;;;4.82;2.50;;;30.20;68.20;;;;;;5050363;28;20029;-67
2021/11/09 02:38:35;;;;;;;4.25;2.58;;;30.00;70.30;;;;;;5049666;28;20502;-70
2021/11/09 02:41:03;;;;;;;5.85;2.70;;;30.30;68.90;;;;;;5050644;28;20025;-68
2021/11/09 02:43:31;;;;;;;4.15;2.42;;;30.40;69.90;;;;;;5049510;28;20724;-67
2021/11/09 02:48:37;;;;;;;5.03;2.80;;;29.40;71.60;;;;;;5044441;28;20025;-69
2021/11/09 02:51:12;;;;;;;4.70;2.92;;;29.10;72.10;;;;;;5048702;28;20033;-65
2021/11/09 02:53:46;;;;;;;5.95;3.00;;;29.00;73.90;;;;;;5049710;28;20052;-66
2021/11/09 03:03:54;;;;;;;9.07;3.10;;;29.90;75.00;;;;;;5044463;28;20021;-70
2021/11/09 03:09:02;;;;;;;7.18;2.90;;;30.50;71.80;;;;;;5048357;28;20025;-71
2021/11/09 03:11:29;;;;;;;9.90;3.17;;;30.20;70.90;;;;;;5050542;28;20041;-67
2021/11/09 03:13:57;;;;;;;7.10;3.42;;;29.60;71.20;;;;;;5049417;28;20479;-68
2021/11/09 03:16:27;;;;;;;7.85;3.13;;;28.80;73.80;;;;;;5047028;28;20116;-67
2021/11/09 03:40:50;;;;;;;9.73;3.67;;;30.20;73.60;;;;;;5047452;28;20402;-68
2021/11/09 03:46:03;;;;;;;6.07;2.85;;;29.00;75.30;;;;;;5048498;28;20440;-69
2021/11/09 03:48:30;;;;;;;8.70;3.33;;;28.90;77.30;;;;;;5046949;28;20025;-71
2021/11/09 03:51:00;;;;;;;5.53;2.55;;;29.40;75.40;;;;;;5047806;28;20108;-69
2021/11/09 03:53:29;;;;;;;7.38;2.95;;;29.90;77.40;;;;;;5049113;28;20400;-71
2021/11/09 03:58:40;;;;;;;9.77;2.92;;;30.30;75.30;;;;;;5047820;28;20416;-71
2021/11/09 04:01:11;;;;;;;7.50;3.10;;;30.50;70.60;;;;;;5047692;28;20029;-70
2021/11/09 04:11:48;;;;;;;8.25;3.08;;;30.60;73.20;;;;;;5045130;28;20513;-65
2021/11/09 04:19:57;;;;;;;9.70;2.65;;;31.40;69.70;;;;;;5042158;28;20088;-69
2021/11/09 05:08:48;;;;;;;8.80;2.70;;;30.20;73.90;;;;;;5038710;28;20032;-69
2021/11/09 05:11:15;;;;;;;11.15;3.20;;;30.40;70.50;;;;;;5040000;28;20444;-69
2021/11/09 05:13:42;;;;;;;4.03;2.40;;;30.00;72.60;;;;;;5041812;28;20053;-69
2021/11/09 05:16:11;;;;;;;8.55;2.63;;;29.40;74.90;;;;;;5044015;28;20025;-68
2021/11/09 05:18:38;;;;;;;7.60;2.88;;;28.70;76.80;;;;;;5041568;28;20033;-69
2021/11/09 05:21:05;;;;;;;7.30;2.80;;;28.40;79.30;;;;;;5043782;28;20124;-69
2021/11/09 05:23:32;;;;;;;7.35;3.15;;;28.70;78.80;;;;;;5044109;28;20027;-68
2021/11/09 05:25:59;;;;;;;5.93;2.63;;;28.90;78.00;;;;;;5036557;28;20066;-69
2021/11/09 05:28:26;;;;;;;9.88;2.97;;;29.20;78.60;;;;;;5023146;28;20074;-68
2021/11/09 05:30:53;;;;;;;6.43;3.00;;;29.10;78.30;;;;;;5037210;28;20136;-66
2021/11/09 05:33:22;;;;;;;7.40;2.65;;;28.90;77.70;;;;;;5032822;28;20032;-67
2021/11/09 05:35:50;;;;;;;7.00;3.03;;;28.80;80.60;;;;;;5027363;28;20040;-68
2021/11/09 05:38:26;;;;;;;6.43;2.88;;;29.30;78.10;;;;;;5047332;28;20103;-67
2021/11/09 05:41:05;;;;;;;7.30;3.15;;;29.40;77.60;;;;;;5043299;28;20033;-68
2021/11/09 05:43:32;;;;;;;4.60;2.45;;;29.60;77.20;;;;;;5045628;28;20021;-70
2021/11/09 05:45:59;;;;;;;8.10;2.70;;;29.60;77.10;;;;;;5046076;28;20519;-68
2021/11/09 05:48:26;;;;;;;7.82;2.65;;;29.40;75.40;;;;;;5046372;28;20110;-69
2021/11/09 05:50:53;;;;;;;8.00;2.45;;;28.50;79.00;;;;;;5047352;28;20076;-69
2021/11/09 05:53:20;;;;;;;8.75;2.58;;;27.90;83.00;;;;;;5046304;28;21296;-66
2021/11/09 05:55:47;;;;;;;8.18;2.80;;;27.60;85.40;;;;;;5028422;28;20134;-68
2021/11/09 05:58:14;;;;;;;5.35;2.33;;;28.00;83.80;;;;;;5045664;28;20031;-64
2021/11/09 06:00:41;;;;;;;10.30;2.83;;;28.30;82.10;;;;;;5044563;28;20120;-64
2021/11/09 06:03:08;;;;;;;9.27;3.10;;;28.20;83.20;;;;;;5043073;28;20029;-64
2021/11/09 06:05:35;;;;;;;6.97;2.85;;;28.40;82.90;;;;;;5026506;28;20033;-71
2021/11/09 06:08:02;;;;;;;8.38;2.78;;;28.60;81.70;;;;;;5045942;28;20606;-69
2021/11/09 06:10:29;;;;;;;10.55;2.65;;;29.10;79.60;;;;;;5045681;28;20021;-69
2021/11/09 06:12:56;;;;;;;7.75;3.15;;;29.00;79.60;;;;;;5047119;28;20387;-67
2021/11/09 06:15:23;;;;;;;9.20;3.28;;;29.40;78.70;;;;;;5044117;28;20638;-69
2021/11/09 06:17:50;;;;;;;6.28;3.63;;;28.90;78.00;;;;;;5027397;28;20021;-71
2021/11/09 06:20:17;;;;;;;6.00;3.13;;;27.80;83.60;;;;;;5039893;28;20139;-68
2021/11/09 06:22:44;;;;;;;6.20;2.58;;;27.80;86.20;;;;;;5046878;28;20021;-72
2021/11/09 06:25:12;;;;;;;6.32;2.55;;;28.30;83.60;;;;;;5043084;28;20029;-69
2021/11/09 06:27:39;;;;;;;5.95;2.60;;;28.70;83.00;;;;;;5028082;28;20025;-69
2021/11/09 06:30:07;;;;;;;6.90;2.38;;;29.50;79.80;;;;;;5042629;28;20067;-70
2021/11/09 06:32:35;;;;;;;6.65;3.20;;;30.20;77.80;;;;;;5045624;28;20368;-69
2021/11/09 06:35:02;;;;;;;5.90;2.63;;;30.20;74.80;;;;;;5045338;28;20095;-71
2021/11/09 06:37:31;;;;;;;5.45;2.60;;;29.70;76.80;;;;;;5042886;28;20036;-72
2021/11/09 06:39:58;;;;;;;7.57;2.50;;;29.60;76.50;;;;;;5036512;28;20053;-71
2021/11/09 06:42:25;;;;;;;6.25;2.40;;;29.10;79.20;;;;;;5044966;28;20037;-70
2021/11/09 06:44:52;;;;;;;8.10;2.95;;;29.40;81.30;;;;;;5046011;28;20691;-71
2021/11/09 06:47:19;;;;;;;5.90;2.22;;;29.60;79.20;;;;;;5043609;28;20341;-69
2021/11/09 06:49:46;;;;;;;6.57;2.42;;;30.10;75.60;;;;;;5025864;28;20035;-68
2021/11/09 06:52:14;;;;;;;6.93;2.78;;;30.00;74.30;;;;;;5041208;28;20024;-69
2021/11/09 06:54:42;;;;;;;4.88;2.45;;;29.10;78.20;;;;;;5101915;22;20624;-69
2021/11/09 06:57:10;;;;;;;5.60;2.83;;;28.20;82.50;;;;;;5065422;28;20035;-70
2021/11/09 06:59:38;;;;;;;6.65;2.50;;;27.90;83.60;;;;;;5065665;28;20028;-69
2021/11/09 07:02:06;;;;;;;6.28;2.10;;;27.80;85.60;;;;;;5062437;28;20043;-72
2021/11/09 07:04:34;;;;;;;5.95;2.92;;;28.70;83.40;;;;;;5040776;28;20036;-71
2021/11/09 07:07:01;;;;;;;6.70;2.63;;;29.30;82.40;;;;;;5061683;28;20286;-72
2021/11/09 07:09:28;;;;;;;8.93;2.35;;;29.90;79.00;;;;;;5065661;28;20378;-73
2021/11/09 07:11:55;;;;;;;6.18;2.80;;;30.60;74.30;;;;;;5062499;28;20024;-69
2021/11/09 07:14:22;;;;;;;5.90;2.42;;;31.20;73.00;;;;;;5063685;28;20468;-69
2021/11/09 07:16:52;;;;;;;7.03;2.47;;;31.10;72.10;;;;;;5064923;28;20468;-68
2021/11/09 07:19:19;;;;;;;8.25;2.92;;;30.40;73.00;;;;;;5062353;28;20095;-67
2021/11/09 07:21:47;;;;;;;7.95;2.72;;;30.00;74.30;;;;;;5064972;28;20419;-68
2021/11/09 07:24:15;;;;;;;5.57;2.55;;;30.00;74.80;;;;;;5065121;28;20052;-68
2021/11/09 07:26:42;;;;;;;10.63;3.05;;;30.00;74.20;;;;;;5065895;28;20025;-69
2021/11/09 07:29:09;;;;;;;7.55;2.55;;;29.50;75.50;;;;;;5065187;28;20021;-70
2021/11/09 07:31:37;;;;;;;6.03;2.03;;;29.00;78.70;;;;;;5048714;28;20095;-68
2021/11/09 07:34:04;;;;;;;10.82;2.25;;;28.80;79.50;;;;;;5066350;28;20459;-68
2021/11/09 07:36:32;;;;;;;6.53;2.30;;;28.80;79.70;;;;;;5066195;28;20502;-68
2021/11/09 07:39:00;;;;;;;6.50;2.38;;;29.00;78.90;;;;;;5064512;28;20448;-68
2021/11/09 07:41:27;;;;;;;5.68;1.90;;;29.10;78.70;;;;;;5042688;28;20447;-69
2021/11/09 07:43:54;;;;;;;10.23;2.60;;;29.10;77.90;;;;;;5059329;28;20027;-70
2021/11/09 07:46:21;;;;;;;5.70;2.13;;;28.40;81.00;;;;;;5061599;28;20025;-68
2021/11/09 07:48:48;;;;;;;4.82;2.00;;;28.20;82.20;;;;;;5062733;28;20028;-71
2021/11/09 07:51:15;;;;;;;5.65;1.52;;;27.90;82.80;;;;;;5066132;28;20031;-68
2021/11/09 07:53:44;;;;;;;9.50;2.83;;;27.80;85.90;;;;;;5065049;28;20056;-70
2021/11/09 07:56:18;;;;;;;6.32;2.15;;;27.80;84.10;;;;;;5065311;28;20079;-68
2021/11/09 07:58:57;;;;;;;7.10;1.73;;;27.20;87.50;;;;;;5068674;28;20028;-69
2021/11/09 08:04:26;;;;;;;;;;;26.70;90.50;;;;;;5062353;28;20399;-67
2021/11/09 08:06:59;;;;;;;7.57;1.95;;;26.50;91.10;;;;;;5060866;28;19980;-69
2021/11/09 08:09:28;;;;;;;5.07;1.75;;;26.10;92.40;;;;;;5044241;28;20478;-68
2021/11/09 08:12:00;;;;;;;6.05;1.98;;;25.70;93.50;;;;;;5062431;28;20112;-67
2021/11/09 08:14:27;;;;;;;4.47;1.65;;;25.00;95.60;;;;;;5061331;28;20031;-68
2021/11/09 08:16:55;;;;;;;4.72;2.00;;;24.50;97.30;;;;;;5055230;28;20107;-66
2021/11/09 08:19:22;;;;;;;4.43;1.90;;;24.20;98.60;;;;;;5058650;28;20187;-67
2021/11/09 08:21:54;;;;;;;6.18;1.75;;;23.90;99.70;;;;;;5060698;28;20035;-69
2021/11/09 08:24:22;;;;;;;6.20;2.35;;;23.60;99.90;;;;;;5059762;28;20813;-68
2021/11/09 08:26:51;;;;;;;6.78;2.30;;;23.40;99.90;;;;;;5060769;28;20270;-69
2021/11/09 08:29:27;;;;;;;6.20;2.10;;;23.30;99.90;;;;;;5060228;28;20017;-71
2021/11/09 08:31:56;;;;;;;6.50;2.28;;;23.00;99.90;;;;;;5059831;28;20550;-68
2021/11/09 08:34:25;;;;;;;6.25;1.65;;;22.70;99.90;;;;;;5061655;28;20252;-68
2021/11/09 08:36:52;;;;;;;3.90;1.90;;;22.60;99.90;;;;;;5061396;28;20494;-70
2021/11/09 08:39:23;;;;;;;6.75;2.00;;;22.50;99.90;;;;;;5061181;28;20090;-70
2021/11/09 08:42:34;;;;;;;6.03;1.90;;;22.30;99.90;;;;;;5040592;28;20029;-66
2021/11/09 08:45:00;;;;;;;7.25;2.00;;;22.20;99.90;;;;;;5045845;28;20139;-64
2021/11/09 08:47:31;;;;;;;13.40;9.65;;;22.10;99.90;;;;;;5057617;28;20547;-70
2021/11/09 08:49:58;;;;;;;17.80;7.25;;;22.00;99.90;;;;;;5043363;28;20081;-70
2021/11/09 08:52:29;;;;;;;4.72;2.45;;;22.00;99.90;;;;;;5060897;28;20036;-73
2021/11/09 08:55:15;;;;;;;10.70;5.47;;;21.90;99.90;;;;;;5059615;28;20221;-69
2021/11/09 08:58:11;;;;;;;10.68;5.53;;;21.90;99.90;;;;;;5060550;28;20079;-69
2021/11/09 09:06:06;;;;;;;7.10;3.20;;;21.70;99.90;;;;;;5061132;28;20626;-67
2021/11/09 09:08:33;;;;;;;7.00;3.20;;;21.70;99.90;;;;;;5059543;28;20025;-66
2021/11/09 09:11:01;;;;;;;9.82;4.93;;;21.60;99.90;;;;;;5059121;28;20033;-66
2021/11/09 09:13:28;;;;;;;9.90;6.07;;;21.60;99.90;;;;;;5059725;28;20040;-68
2021/11/09 09:15:56;;;;;;;14.82;8.50;;;21.40;99.90;;;;;;5060746;28;20028;-67
2021/11/09 09:18:23;;;;;;;6.03;3.92;;;21.30;99.90;;;;;;5059308;28;20024;-67
2021/11/09 09:20:58;;;;;;;9.13;5.00;;;21.30;99.90;;;;;;5057774;28;20346;-67
2021/11/09 09:23:34;;;;;;;8.98;3.75;;;21.30;99.90;;;;;;5060441;28;20036;-68
2021/11/09 09:29:07;;;;;;;8.20;4.90;;;21.10;99.90;;;;;;5059789;28;20233;-65
2021/11/09 09:31:50;;;;;;;7.45;4.78;;;21.00;99.90;;;;;;5056325;28;20121;-69
2021/11/09 09:56:17;;;;;;;6.75;3.28;;;20.50;99.90;;;;;;5046555;28;20064;-70
2021/11/09 09:58:44;;;;;;;8.50;3.38;;;20.60;99.90;;;;;;5063213;28;20020;-66
2021/11/09 10:01:12;;;;;;;6.55;3.00;;;20.50;99.90;;;;;;5045002;28;20429;-66
2021/11/09 10:03:41;;;;;;;5.28;2.45;;;20.50;99.90;;;;;;5063508;28;20086;-66
2021/11/09 10:06:09;;;;;;;11.45;2.65;;;20.40;99.90;;;;;;5045583;28;20024;-65
2021/11/09 10:08:48;;;;;;;6.13;2.15;;;20.20;99.90;;;;;;5061147;28;20571;-68
2021/11/09 10:11:34;;;;;;;6.65;2.95;;;20.20;99.90;;;;;;5055489;28;20062;-68
2021/11/09 10:14:07;;;;;;;7.68;2.17;;;20.20;99.90;;;;;;5056651;28;20028;-69
2021/11/09 10:16:38;;;;;;;;;;;20.20;99.90;;;;;;5059136;28;20111;-68
2021/11/09 10:19:05;;;;;;;4.28;2.22;;;20.10;99.90;;;;;;5058709;28;19918;-67
2021/11/09 10:21:38;;;;;;;5.65;2.35;;;20.00;99.90;;;;;;5066595;28;20110;-69
2021/11/09 10:24:26;;;;;;;4.68;1.80;;;20.00;99.90;;;;;;5067090;28;20016;-67
2021/11/09 10:26:54;;;;;;;5.05;1.75;;;19.80;99.90;;;;;;5066658;28;20136;-67
2021/11/09 10:29:41;;;;;;;6.40;2.30;;;19.80;99.90;;;;;;5066320;28;20744;-69
2021/11/09 10:32:16;;;;;;;4.97;2.10;;;19.80;99.90;;;;;;5056672;28;20462;-67
2021/11/09 10:34:44;;;;;;;6.15;2.10;;;19.70;99.90;;;;;;5067499;28;20448;-68
2021/11/09 10:37:24;;;;;;;2.90;1.70;;;19.60;99.90;;;;;;5066688;28;20317;-67
2021/11/09 10:39:52;;;;;;;4.97;1.80;;;19.50;99.90;;;;;;5066978;28;20037;-66
2021/11/09 10:42:22;;;;;;;5.32;1.95;;;19.60;99.90;;;;;;5064449;28;20032;-66
2021/11/09 10:45:08;;;;;;;5.43;1.60;;;19.60;99.90;;;;;;5065294;28;20412;-65
2021/11/09 10:47:38;;;;;;;6.50;1.98;;;19.40;99.90;;;;;;5062311;28;20036;-65
2021/11/09 10:50:24;;;;;;;4.03;1.67;;;19.40;99.90;;;;;;5065894;28;20039;-66
2021/11/09 10:53:21;;;;;;;4.97;1.92;;;19.30;99.90;;;;;;5066127;28;20027;-67
2021/11/09 10:56:33;;;;;;;5.60;2.00;;;19.20;99.90;;;;;;5066187;28;20105;-66
2021/11/09 10:59:20;;;;;;;2.22;1.27;;;19.30;99.90;;;;;;5065499;28;20056;-66
2021/11/09 11:04:38;;;;;;;7.93;5.32;;;19.20;99.90;;;;;;5062746;28;20507;-67
2021/11/09 11:07:10;;;;;;;9.52;5.60;;;19.20;99.90;;;;;;5064902;28;20119;-65
2021/11/09 11:09:42;;;;;;;7.05;4.32;;;19.20;99.90;;;;;;5065330;28;20033;-67
2021/11/09 11:12:14;;;;;;;6.68;2.40;;;19.10;99.90;;;;;;5064647;28;20039;-66
2021/11/09 11:14:45;;;;;;;7.73;2.67;;;19.10;99.90;;;;;;5065413;28;20032;-67
2021/11/09 11:17:16;;;;;;;9.48;2.10;;;19.00;99.90;;;;;;5065611;28;20308;-66
2021/11/09 11:20:00;;;;;;;5.65;2.17;;;18.90;99.90;;;;;;5063387;28;20033;-66
2021/11/09 11:22:29;;;;;;;4.97;2.38;;;18.90;99.90;;;;;;5064765;28;20457;-66
2021/11/09 11:24:59;;;;;;;8.75;2.05;;;18.90;99.90;;;;;;5063121;28;20144;-66
2021/11/09 11:27:32;;;;;;;5.40;2.13;;;18.80;99.90;;;;;;5065693;28;20100;-68
2021/11/09 11:30:00;;;;;;;7.25;3.00;;;18.90;99.90;;;;;;5065202;28;20051;-66
2021/11/09 11:32:30;;;;;;;5.35;2.38;;;18.90;99.90;;;;;;5064649;28;20029;-68
2021/11/09 11:34:57;;;;;;;7.60;2.33;;;18.90;99.90;;;;;;5062961;28;20031;-68
2021/11/09 11:37:24;;;;;;;4.75;2.13;;;18.90;99.90;;;;;;5065559;28;20040;-67
2021/11/09 11:39:56;;;;;;;5.85;2.50;;;18.80;99.90;;;;;;5065514;28;20033;-67
2021/11/09 11:42:23;;;;;;;4.33;2.27;;;18.80;99.90;;;;;;5064003;28;20385;-68
2021/11/09 11:45:00;;;;;;;3.85;2.03;;;18.80;99.90;;;;;;5064021;28;20253;-67
2021/11/09 11:47:28;;;;;;;5.72;2.40;;;18.80;99.90;;;;;;5063397;28;20078;-67
2021/11/09 11:50:04;;;;;;;3.85;2.13;;;18.80;99.90;;;;;;5066018;28;20028;-66
2021/11/09 11:52:50;;;;;;;5.13;2.28;;;18.70;99.90;;;;;;5065563;28;20135;-67
2021/11/09 11:55:26;;;;;;;5.13;2.40;;;18.70;99.90;;;;;;5064324;28;20983;-66
2021/11/09 11:58:13;;;;;;;3.35;2.10;;;18.70;99.90;;;;;;5063564;28;20052;-67
2021/11/09 12:00:56;;;;;;;4.72;2.33;;;18.60;99.90;;;;;;5062025;28;20077;-68
2021/11/09 12:03:23;;;;;;;6.90;2.35;;;18.50;99.90;;;;;;5065199;28;20357;-68
2021/11/09 12:05:51;;;;;;;5.65;2.97;;;18.50;99.90;;;;;;5064642;28;20024;-67
2021/11/09 12:08:42;;;;;;;5.15;2.38;;;18.50;99.90;;;;;;5064583;28;20469;-68
2021/11/09 12:11:40;;;;;;;2.97;1.60;;;18.50;99.90;;;;;;5063070;28;20284;-68
2021/11/09 12:14:10;;;;;;;5.88;2.20;;;18.40;99.90;;;;;;5063367;28;20689;-68
2021/11/09 12:16:43;;;;;;;6.95;2.00;;;18.40;99.90;;;;;;5065816;28;20409;-66
2021/11/09 12:19:30;;;;;;;;;;;18.40;99.90;;;;;;5063387;28;20028;-67
2021/11/09 12:22:15;;;;;;;4.18;2.05;;;18.30;99.90;;;;;;5063736;28;19961;-66
2021/11/09 12:24:54;;;;;;;3.35;1.80;;;18.20;99.90;;;;;;5060663;28;20052;-66
2021/11/09 12:27:30;;;;;;;4.90;2.20;;;18.30;99.90;;;;;;5056433;28;20487;-67
2021/11/09 12:30:00;;;;;;;6.43;2.10;;;18.30;99.90;;;;;;5063610;28;20032;-68
2021/11/09 12:32:41;;;;;;;7.10;2.33;;;18.50;99.90;;;;;;5061432;28;20028;-67
2021/11/09 12:35:20;;;;;;;5.57;1.70;;;18.40;99.90;;;;;;5064077;28;20040;-67
2021/11/09 12:38:28;;;;;;;4.90;1.83;;;18.30;99.90;;;;;;5064457;28;20455;-67
2021/11/09 12:40:57;;;;;;;5.68;2.65;;;18.30;99.90;;;;;;5062369;28;20040;-68
2021/11/09 12:43:30;;;;;;;3.15;1.77;;;18.20;99.90;;;;;;5064127;28;20016;-66
2021/11/09 12:46:23;;;;;;;4.38;2.28;;;18.20;99.90;;;;;;5063448;28;20346;-67
2021/11/09 12:49:00;;;;;;;9.57;2.03;;;18.30;99.90;;;;;;5063949;28;20059;-67
2021/11/09 12:51:32;;;;;;;5.35;1.80;;;18.30;99.90;;;;;;5063958;28;20115;-66
2021/11/09 12:54:09;;;;;;;4.50;1.92;;;18.20;99.90;;;;;;5064106;28;20052;-68
2021/11/09 12:56:42;;;;;;;5.15;2.08;;;18.30;99.90;;;;;;5063149;28;20426;-67
2021/11/09 13:05:03;;;;;;;6.05;1.92;;;18.30;99.90;;;;;;5064703;28;20021;-68
2021/11/09 13:08:02;;;;;;;4.50;2.03;;;18.40;99.90;;;;;;5059092;28;20040;-66
2021/11/09 13:10:20;;;;;;;5.80;2.00;;;18.30;99.90;;;;;;5061934;28;20559;-67
2021/11/09 13:12:50;;;;;;;7.50;2.28;;;18.30;99.90;;;;;;5064443;28;20059;-68
2021/11/09 13:15:19;;;;;;;6.05;2.15;;;18.20;99.90;;;;;;5061227;28;20118;-68
2021/11/09 13:17:54;;;;;;;4.57;1.92;;;18.10;99.90;;;;;;5064129;28;20033;-68
2021/11/09 13:20:34;;;;;;;6.55;2.45;;;18.10;99.90;;;;;;5061950;28;20103;-68
2021/11/09 13:23:15;;;;;;;3.60;2.22;;;18.10;99.90;;;;;;5064186;28;20031;-68
2021/11/09 13:25:49;;;;;;;6.00;1.90;;;18.10;99.90;;;;;;5061443;28;20021;-67
2021/11/09 13:28:16;;;;;;;4.57;2.33;;;18.10;99.90;;;;;;5063235;28;20056;-68
2021/11/09 13:30:45;;;;;;;4.68;3.10;;;18.10;99.90;;;;;;5063579;28;20439;-68
2021/11/09 13:33:14;;;;;;;5.10;2.72;;;18.10;99.90;;;;;;5064130;28;20024;-68
2021/11/09 13:35:44;;;;;;;4.05;2.33;;;18.10;99.90;;;;;;5064317;28;20032;-66
2021/11/09 13:38:37;;;;;;;5.50;2.58;;;18.00;99.90;;;;;;5060821;28;20041;-68
2021/11/09 13:41:12;;;;;;;3.38;2.05;;;18.00;99.90;;;;;;5062584;28;20032;-67
2021/11/09 13:43:42;;;;;;;3.05;2.03;;;18.00;99.90;;;;;;5063748;28;20025;-67
2021/11/09 13:46:15;;;;;;;9.82;2.60;;;18.00;99.90;;;;;;5061267;28;20025;-67
2021/11/09 13:48:53;;;;;;;5.55;2.58;;;18.00;99.90;;;;;;5063794;28;20882;-67
2021/11/09 13:51:27;;;;;;;6.53;2.40;;;17.90;99.90;;;;;;5062598;28;20034;-68
2021/11/09 13:54:05;;;;;;;6.10;2.47;;;18.00;99.90;;;;;;5063297;28;20037;-67
2021/11/09 13:56:32;;;;;;;5.15;2.85;;;18.00;99.90;;;;;;5048275;28;20028;-67
2021/11/09 13:59:07;;;;;;;10.48;3.45;;;18.00;99.90;;;;;;5068168;28;20039;-68
2021/11/09 14:10:42;;;;;;;8.05;3.20;;;18.00;99.90;;;;;;5063618;28;20109;-68
2021/11/09 14:13:30;;;;;;;6.38;3.35;;;18.00;99.90;;;;;;5067428;28;20036;-68
2021/11/09 14:18:53;;;;;;;7.35;3.58;;;18.10;99.90;;;;;;5062385;28;20208;-68
2021/11/09 14:21:40;;;;;;;5.20;3.00;;;18.00;99.90;;;;;;5067634;28;20020;-70
2021/11/09 14:24:14;;;;;;;7.40;3.25;;;18.00;99.90;;;;;;5067681;28;20024;-67
2021/11/09 14:26:43;;;;;;;10.05;3.40;;;18.00;99.90;;;;;;5068325;28;21346;-68
2021/11/09 14:29:23;;;;;;;7.68;3.40;;;18.00;99.90;;;;;;5070276;28;20016;-68
2021/11/09 14:32:18;;;;;;;7.55;4.20;;;18.10;99.90;;;;;;5065870;28;20029;-69
2021/11/09 14:35:22;;;;;;;6.75;2.92;;;18.20;99.90;;;;;;5069667;28;20572;-67
2021/11/09 14:37:55;;;;;;;6.30;2.58;;;18.20;99.90;;;;;;5052571;28;20099;-69
2021/11/09 14:40:34;;;;;;;6.50;2.50;;;18.30;99.90;;;;;;5068377;28;20027;-68
2021/11/09 14:43:37;;;;;;;6.35;2.60;;;18.30;99.90;;;;;;5069360;28;20436;-67
2021/11/09 14:46:25;;;;;;;6.40;2.53;;;18.30;99.90;;;;;;5063996;28;20125;-68
2021/11/09 14:48:58;;;;;;;7.93;2.67;;;18.30;99.90;;;;;;5067292;28;20083;-67
2021/11/09 14:51:30;;;;;;;9.18;2.63;;;18.30;99.90;;;;;;5070599;28;20021;-67
2021/11/09 14:54:24;;;;;;;4.95;2.45;;;18.30;99.90;;;;;;5070100;28;20056;-67
2021/11/09 14:56:46;;;;;;;6.38;2.50;;;18.30;99.90;;;;;;5069207;28;20043;-67
2021/11/09 14:59:18;;;;;;;9.02;2.88;;;18.30;99.90;;;;;;5069319;28;20036;-69
2021/11/09 15:29:19;;;;;;;6.35;3.92;;;18.40;99.90;;;;;;5068115;28;20031;-67
2021/11/09 15:31:55;;;;;;;6.68;2.95;;;18.50;99.90;;;;;;5064527;28;20154;-68
2021/11/09 15:37:23;;;;;;;8.43;4.00;;;18.40;99.90;;;;;;5068049;28;20124;-67
2021/11/09 15:39:50;;;;;;;7.03;3.83;;;18.40;99.90;;;;;;5069156;28;20036;-69
2021/11/09 15:42:17;;;;;;;6.20;4.05;;;18.30;99.90;;;;;;5068246;28;20029;-68
2021/11/09 15:44:44;;;;;;;7.75;3.80;;;18.30;99.90;;;;;;5069157;28;20025;-67
2021/11/09 15:47:12;;;;;;;6.82;4.32;;;18.30;99.90;;;;;;5068654;28;20263;-69
2021/11/09 15:49:40;;;;;;;8.18;4.38;;;18.30;99.90;;;;;;5069205;28;20539;-67
2021/11/09 15:52:07;;;;;;;8.95;4.32;;;18.20;99.90;;;;;;5068998;28;20056;-68
2021/11/09 15:54:34;;;;;;;7.45;4.50;;;18.20;99.90;;;;;;5068214;28;20108;-68
2021/11/09 15:57:02;;;;;;;7.40;4.22;;;18.10;99.90;;;;;;5068854;28;20024;-68
2021/11/09 15:59:29;;;;;;;8.40;4.40;;;18.10;99.90;;;;;;5068346;28;20031;-68
2021/11/09 16:01:56;;;;;;;10.45;5.03;;;18.00;99.90;;;;;;5068193;28;20286;-67
2021/11/09 16:04:30;;;;;;;5.18;4.07;;;18.00;99.90;;;;;;5068763;28;20024;-67
2021/11/09 16:06:59;;;;;;;8.07;4.53;;;18.00;99.90;;;;;;5066170;28;20035;-67
2021/11/09 16:09:26;;;;;;;11.95;3.92;;;18.00;99.90;;;;;;5069091;28;20017;-68
2021/11/09 16:11:53;;;;;;;7.28;3.30;;;18.00;99.90;;;;;;5068035;28;20353;-68
2021/11/09 16:14:21;;;;;;;14.52;3.40;;;17.90;99.90;;;;;;5068336;28;20033;-68